Time;durP1;ratioP1;P1;durP2;ratioP2;P2;SDS_P1;SDS_P2;PMS_P1;PMS_P2;Temp;Humidity;BMP_temperature;BMP_pressure;BME280_temperature;BME280_humidity;BME280_pressure;Samples;Min_cycle;Max_cycle;Signal;HPM_P1;HPM_P2
2023/03/08 00:02:14;;;;;;;3.07;2.87;;;;;;;5.72;59.95;94105.69;4334361;32;20296;-56
2023/03/08 00:04:42;;;;;;;2.20;2.00;;;;;;;5.76;59.67;94115.34;4332642;32;20247;-55
2023/03/08 00:07:08;;;;;;;2.33;2.13;;;;;;;5.80;60.29;94115.53;4330929;32;20332;-52
2023/03/08 00:09:37;;;;;;;2.80;2.60;;;;;;;5.57;60.50;94109.37;4340725;32;20290;-55
2023/03/08 00:12:09;;;;;;;2.40;2.00;;;;;;;5.69;60.12;94116.78;4351225;32;20237;-55
2023/03/08 00:14:37;;;;;;;2.37;2.23;;;;;;;5.75;59.58;94113.78;4349258;32;20301;-55
2023/03/08 00:17:04;;;;;;;3.17;2.97;;;;;;;5.82;59.13;94122.03;4323651;32;20286;-53
2023/03/08 00:19:31;;;;;;;2.63;2.53;;;;;;;5.82;58.99;94123.87;4330857;32;20356;-55
2023/03/08 00:21:57;;;;;;;1.80;1.70;;;;;;;5.61;60.32;94123.50;4312744;32;20305;-53
2023/03/08 00:24:27;;;;;;;2.87;2.77;;;;;;;5.79;59.87;94132.41;4320517;32;20350;-53
2023/03/08 00:26:53;;;;;;;1.73;1.40;;;;;;;5.66;59.63;94135.78;4321317;32;20301;-55
2023/03/08 00:29:21;;;;;;;2.67;2.57;;;;;;;5.70;59.37;94124.37;4351566;32;20304;-50
2023/03/08 00:31:47;;;;;;;2.53;2.33;;;;;;;5.70;59.66;94128.88;4346835;32;20285;-54
2023/03/08 00:34:14;;;;;;;2.20;2.10;;;;;;;5.71;59.96;94128.59;4360589;32;20335;-51
2023/03/08 00:36:41;;;;;;;2.13;2.03;;;;;;;5.79;59.74;94127.13;4308986;32;20305;-56
2023/03/08 00:39:20;;;;;;;2.00;1.90;;;;;;;5.74;59.35;94121.97;4346296;32;20308;-53
2023/03/08 00:41:45;;;;;;;1.83;1.73;;;;;;;5.66;59.35;94138.41;4348128;32;20273;-53
2023/03/08 00:44:13;;;;;;;7.63;2.00;;;;;;;5.52;59.46;94125.25;4320041;32;20328;-52
2023/03/08 00:46:41;;;;;;;3.57;2.40;;;;;;;5.41;59.57;94124.66;4341827;32;20212;-55
2023/03/08 00:49:11;;;;;;;3.23;1.90;;;;;;;5.43;59.77;94117.25;4341225;32;20278;-53
2023/03/08 00:51:37;;;;;;;3.67;2.33;;;;;;;5.31;60.18;94126.69;4301399;32;20349;-54
2023/03/08 00:54:04;;;;;;;2.67;2.53;;;;;;;5.42;59.63;94126.19;4328965;32;20297;-53
2023/03/08 00:56:31;;;;;;;1.77;1.67;;;;;;;5.37;59.54;94128.94;4320041;32;20213;-53
2023/03/08 00:58:58;;;;;;;2.73;2.63;;;;;;;5.40;59.90;94124.97;4327993;32;20364;-53
2023/03/08 01:01:25;;;;;;;2.13;2.03;;;;;;;5.50;58.96;94122.91;4335349;32;20290;-55
2023/03/08 01:03:52;;;;;;;2.27;2.17;;;;;;;5.66;58.73;94127.88;4344485;32;20328;-50
2023/03/08 01:06:20;;;;;;;1.97;1.87;;;;;;;5.67;58.80;94124.19;4328718;32;20278;-53
2023/03/08 01:08:48;;;;;;;1.63;1.63;;;;;;;5.65;58.80;94131.59;4349835;32;20285;-55
2023/03/08 01:11:28;;;;;;;3.03;2.20;;;;;;;5.63;58.47;94115.31;4361041;32;20426;-53
2023/03/08 01:13:55;;;;;;;2.13;2.00;;;;;;;5.53;58.33;94126.81;4346801;32;20296;-53
2023/03/08 01:16:26;;;;;;;2.40;2.23;;;;;;;5.37;59.05;94122.91;4323776;32;20320;-54
2023/03/08 01:18:53;;;;;;;3.00;2.80;;;;;;;5.38;59.04;94122.63;4332912;32;20286;-56
2023/03/08 01:21:20;;;;;;;1.63;1.63;;;;;;;5.26;59.35;94122.28;4326473;32;20278;-55
2023/03/08 01:23:47;;;;;;;9.53;2.23;;;;;;;5.46;59.19;94114.03;4361129;32;20273;-52
2023/03/08 01:26:25;;;;;;;2.00;1.83;;;;;;;5.46;58.44;94106.16;4358710;32;20364;-54
2023/03/08 01:28:51;;;;;;;2.73;2.53;;;;;;;5.45;58.77;94111.69;4345313;32;20328;-53
2023/03/08 01:31:22;;;;;;;3.00;2.80;;;;;;;5.48;59.15;94109.28;4294594;32;20326;-55
2023/03/08 01:33:48;;;;;;;1.73;1.63;;;;;;;5.65;58.29;94123.69;4319298;32;20189;-55
2023/03/08 01:36:18;;;;;;;1.37;1.37;;;;;;;5.50;58.54;94120.28;4325600;32;20347;-55
2023/03/08 01:38:45;;;;;;;1.57;1.50;;;;;;;5.32;59.37;94110.63;4332072;32;20188;-53
2023/03/08 01:41:28;;;;;;;1.97;1.87;;;;;;;5.47;58.84;94107.72;4304004;32;20324;-54
2023/03/08 01:43:53;;;;;;;2.30;2.20;;;;;;;5.32;59.47;94108.00;4333789;32;20294;-54
2023/03/08 01:46:36;;;;;;;1.70;1.67;;;;;;;5.29;59.74;94119.09;4343161;32;20341;-54
2023/03/08 01:49:09;;;;;;;2.03;1.63;;;;;;;5.33;59.42;94116.66;4323650;32;20207;-56
2023/03/08 01:52:05;;;;;;;2.33;2.23;;;;;;;5.27;59.90;94118.59;4354675;32;20326;-55
2023/03/08 01:54:33;;;;;;;2.60;2.13;;;;;;;5.15;61.22;94115.66;4342343;32;20293;-54
2023/03/08 01:57:16;;;;;;;3.67;2.97;;;;;;;5.43;59.37;94106.72;4337823;32;23413;-56
2023/03/08 01:59:48;;;;;;;0.97;0.97;;;;;;;5.06;60.18;94097.12;4316523;32;20290;-56
2023/03/08 02:02:15;;;;;;;3.57;3.03;;;;;;;5.25;59.88;94104.94;4318072;32;20304;-53
2023/03/08 02:04:43;;;;;;;1.97;1.83;;;;;;;5.36;59.91;94089.78;4345660;32;20347;-55
2023/03/08 02:07:14;;;;;;;2.17;2.07;;;;;;;5.26;60.38;94084.69;4325027;33;20293;-56
2023/03/08 02:09:40;;;;;;;3.63;3.00;;;;;;;5.25;60.58;94083.12;4340145;32;20282;-56
2023/03/08 02:12:11;;;;;;;1.80;1.80;;;;;;;4.96;61.02;94094.69;4333661;32;20300;-54
2023/03/08 02:14:41;;;;;;;2.60;2.40;;;;;;;5.04;61.07;94094.00;4335557;32;20292;-56
2023/03/08 02:17:08;;;;;;;3.40;2.13;;;;;;;5.02;61.19;94087.47;4324919;32;20301;-53
2023/03/08 02:19:52;;;;;;;1.10;1.10;;;;;;;4.92;61.35;94079.78;4321911;33;20281;-55
2023/03/08 02:22:22;;;;;;;1.47;1.47;;;;;;;4.89;61.53;94085.59;4331778;32;20299;-55
2023/03/08 02:24:49;;;;;;;2.70;2.17;;;;;;;4.82;61.64;94078.84;4330420;32;20291;-56
2023/03/08 02:27:25;;;;;;;1.87;1.77;;;;;;;4.97;61.90;94079.69;4335902;32;20290;-56
2023/03/08 02:29:52;;;;;;;1.57;1.57;;;;;;;5.06;61.25;94073.47;4342164;32;20356;-54
2023/03/08 02:32:18;;;;;;;5.37;2.47;;;;;;;5.27;60.85;94073.91;4333331;32;20282;-54
2023/03/08 02:34:44;;;;;;;1.97;1.87;;;;;;;5.29;60.81;94076.25;4340914;32;20285;-54
2023/03/08 02:37:10;;;;;;;1.97;1.83;;;;;;;5.29;60.58;94063.87;4342950;32;20193;-53
2023/03/08 02:39:37;;;;;;;1.87;1.77;;;;;;;5.13;61.10;94071.25;4338192;32;20324;-54
2023/03/08 02:42:03;;;;;;;2.17;2.03;;;;;;;5.03;61.14;94062.75;4336765;32;20296;-56
2023/03/08 02:44:30;;;;;;;2.30;2.20;;;;;;;4.99;61.29;94048.66;4316609;32;20390;-52
2023/03/08 02:46:55;;;;;;;2.10;1.83;;;;;;;4.86;62.46;94059.91;4331939;32;20334;-54
2023/03/08 02:49:21;;;;;;;2.13;2.03;;;;;;;4.75;62.60;94049.56;4345295;32;20386;-56
2023/03/08 02:51:48;;;;;;;2.37;2.27;;;;;;;4.91;62.50;94054.56;4350082;32;20207;-54
2023/03/08 02:54:14;;;;;;;1.97;1.87;;;;;;;4.76;62.51;94058.25;4329498;32;20285;-55
2023/03/08 02:56:42;;;;;;;1.83;1.73;;;;;;;4.81;62.56;94053.66;4333974;32;20316;-57
2023/03/08 02:59:12;;;;;;;1.70;1.60;;;;;;;4.99;62.24;94053.91;4341177;32;20228;-53
2023/03/08 03:01:38;;;;;;;2.10;2.00;;;;;;;4.99;62.40;94059.16;4339527;32;20325;-54
2023/03/08 03:04:03;;;;;;;2.23;2.13;;;;;;;4.95;62.54;94052.94;4341400;32;20296;-56
2023/03/08 03:06:31;;;;;;;2.43;2.30;;;;;;;5.05;62.75;94052.75;4322777;32;20293;-54
2023/03/08 03:08:57;;;;;;;2.03;1.93;;;;;;;4.92;62.39;94054.28;4308228;33;20294;-55
2023/03/08 03:11:24;;;;;;;3.57;2.40;;;;;;;4.74;63.03;94053.28;4323512;32;20308;-54
2023/03/08 03:13:57;;;;;;;1.80;1.70;;;;;;;4.92;62.86;94048.25;4326249;32;20193;-55
2023/03/08 03:16:23;;;;;;;2.13;2.03;;;;;;;4.88;62.69;94049.88;4320104;32;20291;-55
2023/03/08 03:18:52;;;;;;;2.63;2.17;;;;;;;4.90;63.04;94055.63;4329786;32;20292;-52
2023/03/08 03:21:20;;;;;;;17.40;3.50;;;;;;;4.87;63.14;94050.94;4324409;32;20350;-55
2023/03/08 03:23:46;;;;;;;3.63;3.33;;;;;;;4.90;63.09;94050.38;4324193;32;20292;-54
2023/03/08 03:26:18;;;;;;;4.13;2.63;;;;;;;4.81;63.00;94051.03;4336598;32;20312;-53
2023/03/08 03:28:44;;;;;;;3.37;3.07;;;;;;;4.69;63.24;94052.56;4311770;32;20190;-56
2023/03/08 03:31:30;;;;;;;2.37;2.27;;;;;;;4.54;63.72;94037.84;4297981;32;20318;-57
2023/03/08 03:33:57;;;;;;;4.73;3.17;;;;;;;4.74;63.90;94037.50;4312373;32;20194;-53
2023/03/08 03:36:23;;;;;;;2.43;2.33;;;;;;;4.63;64.14;94033.47;4345405;32;20282;-52
2023/03/08 03:38:51;;;;;;;2.27;2.10;;;;;;;4.54;64.24;94032.59;4333731;32;20282;-56
2023/03/08 03:41:20;;;;;;;4.13;2.20;;;;;;;4.78;63.33;94038.47;4328550;32;20285;-55
2023/03/08 03:43:48;;;;;;;2.33;2.20;;;;;;;4.65;63.75;94031.34;4327255;32;20324;-53
2023/03/08 03:46:17;;;;;;;2.47;2.33;;;;;;;4.65;63.47;94033.19;4332415;32;20285;-54
2023/03/08 03:48:45;;;;;;;2.07;1.97;;;;;;;4.73;63.86;94030.69;4346021;32;20460;-53
2023/03/08 03:51:15;;;;;;;2.60;2.43;;;;;;;4.75;63.50;94033.81;4322680;32;20325;-53
2023/03/08 03:53:42;;;;;;;2.20;2.00;;;;;;;4.73;63.84;94014.94;4333839;32;20332;-55
2023/03/08 03:56:19;;;;;;;2.30;2.20;;;;;;;4.78;63.17;94014.81;4297875;33;20301;-53
2023/03/08 03:58:45;;;;;;;3.20;2.87;;;;;;;4.92;63.05;94008.84;4342672;32;20285;-53
2023/03/08 04:01:15;;;;;;;3.43;3.23;;;;;;;4.72;63.50;94013.38;4331022;32;20298;-54
2023/03/08 04:03:41;;;;;;;1.37;1.37;;;;;;;4.83;62.93;94017.37;4321124;32;20302;-53
2023/03/08 04:06:13;;;;;;;2.43;2.33;;;;;;;4.95;62.92;94021.41;4340424;32;20309;-53
2023/03/08 04:08:42;;;;;;;2.60;2.37;;;;;;;4.89;62.81;94017.28;4308238;32;20411;-54
2023/03/08 04:11:30;;;;;;;3.47;2.90;;;;;;;4.88;62.83;94016.50;4354747;32;20300;-53
2023/03/08 04:13:57;;;;;;;3.27;3.07;;;;;;;4.87;63.12;94016.81;4320664;32;20278;-53
2023/03/08 04:16:27;;;;;;;2.40;2.20;;;;;;;4.82;63.36;94015.81;4344655;32;20352;-52
2023/03/08 04:18:56;;;;;;;2.43;2.30;;;;;;;5.02;62.80;94012.03;4278648;32;20279;-53
2023/03/08 04:21:24;;;;;;;2.43;2.33;;;;;;;5.01;62.74;94010.50;4332180;32;20328;-52
2023/03/08 04:23:52;;;;;;;1.73;1.63;;;;;;;5.05;62.48;94010.69;4336426;32;20316;-53
2023/03/08 04:26:17;;;;;;;1.53;1.53;;;;;;;5.02;62.81;94000.75;4336686;32;20323;-56
2023/03/08 04:28:46;;;;;;;2.80;2.60;;;;;;;5.24;62.00;94003.50;4346632;32;20277;-56
2023/03/08 04:31:15;;;;;;;1.83;1.73;;;;;;;5.21;62.07;94003.28;4345609;32;20273;-52
2023/03/08 04:33:43;;;;;;;1.60;1.60;;;;;;;5.09;62.34;94001.16;4343920;32;20278;-55
2023/03/08 04:36:10;;;;;;;5.10;3.07;;;;;;;5.12;62.45;94000.59;4334051;32;20277;-51
2023/03/08 04:38:36;;;;;;;1.90;1.80;;;;;;;5.24;62.13;93998.25;4312897;32;20292;-54
2023/03/08 04:41:06;;;;;;;2.20;2.03;;;;;;;5.12;62.36;93990.84;4341982;32;20420;-53
2023/03/08 04:43:33;;;;;;;1.53;1.53;;;;;;;5.11;62.82;93988.50;4338418;32;20344;-53
2023/03/08 04:46:00;;;;;;;8.57;2.37;;;;;;;5.02;62.89;93987.63;4356660;32;20402;-53
2023/03/08 04:48:28;;;;;;;5.60;2.80;;;;;;;5.04;62.95;93973.13;4335523;32;20285;-54
2023/03/08 04:50:58;;;;;;;2.97;2.77;;;;;;;5.28;62.13;93974.78;4332641;32;20390;-54
2023/03/08 04:53:28;;;;;;;4.73;2.80;;;;;;;5.13;62.84;93974.00;4332902;32;20285;-53
2023/03/08 04:55:58;;;;;;;2.63;2.43;;;;;;;5.33;62.42;93959.69;4342436;32;20285;-53
2023/03/08 04:58:30;;;;;;;2.87;2.67;;;;;;;4.97;62.98;93962.25;4340557;32;20273;-54
2023/03/08 05:00:58;;;;;;;1.80;1.73;;;;;;;5.07;63.23;93953.38;4328093;32;20277;-54
2023/03/08 05:03:25;;;;;;;1.87;1.77;;;;;;;5.25;62.63;93946.44;4342733;32;20293;-53
2023/03/08 05:05:53;;;;;;;3.60;3.30;;;;;;;5.21;62.69;93948.87;4344594;32;20285;-53
2023/03/08 05:08:21;;;;;;;2.33;2.23;;;;;;;5.25;62.68;93947.22;4307169;32;20289;-52
2023/03/08 05:10:56;;;;;;;3.93;2.60;;;;;;;5.11;63.22;93947.25;4342556;32;20281;-53
2023/03/08 05:13:22;;;;;;;3.17;2.50;;;;;;;5.30;62.35;93938.47;4303334;32;20348;-53
2023/03/08 05:15:49;;;;;;;1.60;1.60;;;;;;;5.25;62.36;93938.56;4299420;33;20278;-55
2023/03/08 05:18:16;;;;;;;2.47;2.37;;;;;;;5.18;62.83;93918.72;4344473;32;20339;-55
2023/03/08 05:20:43;;;;;;;2.10;2.00;;;;;;;5.32;62.41;93923.94;4350908;32;20334;-55
2023/03/08 05:23:11;;;;;;;3.03;2.93;;;;;;;5.34;62.41;93919.19;4341359;32;20273;-52
2023/03/08 05:25:45;;;;;;;2.33;2.20;;;;;;;4.79;63.94;93916.56;4311232;32;20270;-53
2023/03/08 05:28:14;;;;;;;3.07;2.87;;;;;;;5.02;63.86;93900.91;4355896;32;20277;-55
2023/03/08 05:30:41;;;;;;;2.67;2.47;;;;;;;5.07;63.88;93906.06;4360122;32;20269;-57
2023/03/08 05:33:14;;;;;;;4.50;3.53;;;;;;;4.94;64.35;93898.97;4362839;32;20347;-52
2023/03/08 05:35:44;;;;;;;1.90;1.80;;;;;;;4.99;64.79;93904.88;4323316;32;20277;-57
2023/03/08 05:38:11;;;;;;;4.53;2.80;;;;;;;4.61;66.15;93901.69;4344088;32;20289;-58
2023/03/08 05:40:38;;;;;;;3.23;3.03;;;;;;;4.82;65.65;93913.34;4352809;32;20278;-54
2023/03/08 05:43:05;;;;;;;2.53;2.33;;;;;;;5.00;65.18;93897.78;4360125;32;20273;-54
2023/03/08 05:45:32;;;;;;;3.27;3.00;;;;;;;5.05;65.27;93889.81;4347182;32;20277;-56
2023/03/08 05:47:58;;;;;;;3.17;2.97;;;;;;;4.90;65.80;93887.50;4352894;32;20299;-54
2023/03/08 05:50:26;;;;;;;3.10;2.90;;;;;;;4.99;65.48;93886.50;4340903;32;20303;-56
2023/03/08 05:52:54;;;;;;;3.33;3.17;;;;;;;5.00;65.76;93889.91;4346894;32;20316;-52
2023/03/08 05:55:22;;;;;;;3.87;3.10;;;;;;;4.87;66.39;93882.81;4357749;32;20277;-53
2023/03/08 05:57:48;;;;;;;3.20;2.93;;;;;;;5.03;65.88;93876.19;4330939;32;20352;-54
2023/03/08 06:00:15;;;;;;;3.70;3.50;;;;;;;4.94;66.22;93877.97;4330637;32;20281;-52
2023/03/08 06:02:41;;;;;;;2.50;2.40;;;;;;;4.81;66.71;93880.28;4336243;32;20219;-60
2023/03/08 06:05:08;;;;;;;2.87;2.77;;;;;;;4.65;67.19;93884.28;4347566;32;20289;-52
2023/03/08 06:07:37;;;;;;;3.00;2.80;;;;;;;4.61;67.61;93893.03;4328682;32;20301;-55
2023/03/08 06:10:04;;;;;;;20.57;3.40;;;;;;;4.30;68.91;93890.94;4327258;32;20365;-52
2023/03/08 06:12:31;;;;;;;2.97;2.77;;;;;;;4.34;69.27;93885.91;4321415;32;20395;-55
2023/03/08 06:14:57;;;;;;;3.20;3.03;;;;;;;4.35;69.12;93887.47;4331842;32;20274;-56
2023/03/08 06:17:24;;;;;;;3.00;2.80;;;;;;;4.18;69.92;93887.22;4345274;32;20300;-55
2023/03/08 06:19:49;;;;;;;3.23;2.93;;;;;;;4.32;69.95;93878.31;4342137;32;20282;-52
2023/03/08 06:22:16;;;;;;;3.93;3.63;;;;;;;4.42;69.51;93878.13;4340840;32;20295;-55
2023/03/08 06:24:43;;;;;;;4.07;3.80;;;;;;;4.51;69.65;93893.22;4323718;32;20236;-56
2023/03/08 06:27:13;;;;;;;4.07;3.40;;;;;;;4.80;68.59;93888.44;4316115;33;20287;-53
2023/03/08 06:29:38;;;;;;;4.20;3.17;;;;;;;4.90;68.16;93875.13;4314376;32;20293;-55
2023/03/08 06:32:04;;;;;;;3.17;2.93;;;;;;;4.81;68.32;93884.75;4345015;32;20278;-55
2023/03/08 06:34:31;;;;;;;3.87;3.57;;;;;;;4.86;68.17;93889.13;4332603;32;20328;-54
2023/03/08 06:36:58;;;;;;;6.13;3.33;;;;;;;4.80;68.68;93886.59;4334852;32;20204;-56
2023/03/08 06:39:29;;;;;;;3.33;3.03;;;;;;;5.01;68.14;93878.31;4330436;32;20298;-55
2023/03/08 06:42:00;;;;;;;3.93;3.63;;;;;;;4.94;68.43;93886.63;4344375;32;20347;-55
2023/03/08 06:44:29;;;;;;;2.73;2.40;;;;;;;5.21;67.53;93888.41;4318851;32;20300;-55
2023/03/08 06:46:59;;;;;;;2.97;2.77;;;;;;;5.19;67.34;93887.97;4331683;32;20285;-57
2023/03/08 06:49:26;;;;;;;3.00;2.87;;;;;;;5.27;67.41;93891.72;4336363;32;20275;-55
2023/03/08 06:51:53;;;;;;;4.30;3.90;;;;;;;5.38;66.94;93887.81;4329365;32;20388;-54
2023/03/08 06:54:20;;;;;;;3.30;3.10;;;;;;;5.48;66.89;93900.75;4277922;32;20287;-55
2023/03/08 06:56:46;;;;;;;4.53;3.33;;;;;;;5.63;66.27;93897.00;4287280;32;20309;-53
2023/03/08 06:59:14;;;;;;;3.07;2.77;;;;;;;5.64;66.23;93895.91;4342074;32;20363;-53
2023/03/08 07:01:42;;;;;;;4.27;3.83;;;;;;;5.66;66.43;93905.06;4339578;32;20307;-57
2023/03/08 07:04:08;;;;;;;2.93;2.73;;;;;;;5.54;66.82;93902.19;4328375;32;20296;-53
2023/03/08 07:06:36;;;;;;;3.03;2.83;;;;;;;5.55;66.95;93900.34;4339582;32;20290;-56
2023/03/08 07:09:03;;;;;;;4.07;3.77;;;;;;;5.46;67.03;93898.41;4335723;32;20257;-56
2023/03/08 07:14:52;;;;;;;3.43;3.13;;;;;;;5.44;67.52;93908.44;4284657;32;20298;-53
2023/03/08 07:17:19;;;;;;;3.87;3.67;;;;;;;5.49;67.40;93897.81;4330321;32;20290;-54
2023/03/08 07:19:46;;;;;;;6.47;3.47;;;;;;;5.57;66.93;93898.19;4321927;32;20290;-56
2023/03/08 07:22:12;;;;;;;3.40;3.13;;;;;;;5.76;66.48;93902.22;4325084;32;20301;-56
2023/03/08 07:24:38;;;;;;;2.60;2.50;;;;;;;5.65;66.80;93908.78;4349456;32;20311;-55
2023/03/08 07:27:04;;;;;;;3.37;3.17;;;;;;;5.90;66.06;93909.31;4357198;32;20333;-53
2023/03/08 07:29:30;;;;;;;3.23;3.03;;;;;;;5.95;65.62;93912.59;4312975;32;20279;-56
2023/03/08 07:31:56;;;;;;;3.47;3.27;;;;;;;5.98;65.79;93922.53;4340230;32;20320;-51
2023/03/08 07:34:23;;;;;;;4.93;3.33;;;;;;;6.04;65.28;93931.84;4349162;32;20255;-55
2023/03/08 07:36:50;;;;;;;1.33;1.00;;;;;;;6.05;65.52;93919.47;4334887;32;20286;-56
2023/03/08 07:39:16;;;;;;;0.77;0.77;;;;;;;7.75;92.56;93901.19;4304421;32;20334;-58
2023/03/08 07:41:42;;;;;;;2.17;1.97;;;;;;;9.75;87.04;93900.25;4319081;32;20281;-56
2023/03/08 07:44:08;;;;;;;4.37;2.57;;;;;;;10.65;73.55;93896.97;4320433;32;20297;-56
2023/03/08 07:46:37;;;;;;;2.83;2.63;;;;;;;11.44;64.38;93890.41;4348234;32;20296;-56
2023/03/08 07:49:09;;;;;;;4.73;2.57;;;;;;;11.94;57.86;93887.34;4341043;32;20189;-56
2023/03/08 07:51:34;;;;;;;3.40;3.17;;;;;;;12.08;56.13;93883.53;4343294;32;20182;-54
2023/03/08 07:54:04;;;;;;;3.20;3.00;;;;;;;12.24;54.43;93889.72;4345337;32;20284;-55
2023/03/08 07:56:31;;;;;;;2.63;2.43;;;;;;;12.54;59.33;93884.78;4338295;32;20269;-55
2023/03/08 07:58:58;;;;;;;4.17;3.63;;;;;;;12.50;55.30;93887.34;4334025;32;20211;-50
2023/03/08 08:01:24;;;;;;;4.33;4.03;;;;;;;11.70;48.85;93893.47;4337868;32;20259;-52
2023/03/08 08:03:50;;;;;;;5.90;3.77;;;;;;;10.76;49.38;93881.44;4327400;32;20267;-49
2023/03/08 08:06:15;;;;;;;8.63;3.73;;;;;;;10.09;51.57;93880.66;4345699;32;20194;-53
2023/03/08 08:08:40;;;;;;;3.17;2.90;;;;;;;9.28;53.55;93866.00;4341420;32;20203;-56
2023/03/08 08:11:14;;;;;;;4.23;3.83;;;;;;;8.67;55.77;93861.31;4311923;32;20193;-50
2023/03/08 08:13:39;;;;;;;5.47;3.33;;;;;;;8.13;57.82;93856.44;4313512;32;20193;-60
2023/03/08 08:16:07;;;;;;;3.50;3.20;;;;;;;7.85;58.89;93855.25;4334194;32;20227;-55
2023/03/08 08:18:34;;;;;;;6.33;3.80;;;;;;;8.01;59.35;93853.69;4342059;32;20211;-53
2023/03/08 08:21:06;;;;;;;3.83;3.53;;;;;;;7.96;59.13;93838.00;4329140;32;20205;-51
2023/03/08 08:23:33;;;;;;;2.70;2.60;;;;;;;7.64;59.88;93838.50;4346304;32;20285;-58
2023/03/08 08:26:07;;;;;;;2.73;2.53;;;;;;;8.22;66.47;93828.16;4329011;32;20193;-59
2023/03/08 08:28:33;;;;;;;2.57;2.47;;;;;;;10.27;62.37;93810.53;4355862;32;20197;-59
2023/03/08 08:31:21;;;;;;;3.50;2.70;;;;;;;11.70;55.69;93797.84;4330351;32;20201;-59
2023/03/08 08:33:52;;;;;;;2.30;2.20;;;;;;;12.47;55.29;93792.28;4334467;32;20220;-59
2023/03/08 08:36:21;;;;;;;4.73;3.60;;;;;;;12.43;47.93;93790.66;4358483;32;20219;-59
2023/03/08 08:38:47;;;;;;;2.80;2.60;;;;;;;12.71;52.19;93783.34;4347509;32;20217;-56
2023/03/08 08:41:18;;;;;;;3.43;2.50;;;;;;;13.63;46.14;93769.44;4335808;32;20246;-54
2023/03/08 08:43:45;;;;;;;3.13;2.57;;;;;;;14.42;46.75;93756.47;4341435;32;20270;-48
2023/03/08 08:46:12;;;;;;;3.33;3.13;;;;;;;13.16;43.57;93747.53;4308854;32;20194;-49
2023/03/08 08:48:38;;;;;;;3.03;2.87;;;;;;;11.75;46.39;93737.59;4305807;32;20189;-47
2023/03/08 08:51:07;;;;;;;4.00;3.77;;;;;;;10.87;48.22;93739.28;4327405;32;20243;-52
2023/03/08 08:53:38;;;;;;;3.70;3.43;;;;;;;10.31;49.11;93736.44;4350639;32;20189;-50
2023/03/08 08:56:12;;;;;;;2.63;2.53;;;;;;;9.75;50.83;93722.84;4356841;32;20188;-51
2023/03/08 08:58:39;;;;;;;2.93;2.77;;;;;;;9.06;52.70;93723.44;4334379;32;20192;-52
2023/03/08 09:01:12;;;;;;;3.87;3.57;;;;;;;8.83;53.88;93715.03;4332577;32;20216;-51
2023/03/08 09:03:39;;;;;;;2.90;2.63;;;;;;;9.01;53.76;93717.56;4339219;32;20189;-47
2023/03/08 09:06:09;;;;;;;3.57;2.80;;;;;;;9.06;53.36;93712.09;4305406;32;20197;-51
2023/03/08 09:08:34;;;;;;;3.60;3.40;;;;;;;9.20;53.57;93717.88;4353635;32;20248;-52
2023/03/08 09:11:06;;;;;;;2.30;2.20;;;;;;;8.86;53.81;93698.53;4326606;32;20181;-49
2023/03/08 09:13:31;;;;;;;3.03;2.83;;;;;;;8.58;53.89;93706.19;4343480;32;20239;-51
2023/03/08 09:16:06;;;;;;;2.83;2.63;;;;;;;8.79;53.61;93708.84;4323543;32;20280;-52
2023/03/08 09:18:32;;;;;;;3.70;2.40;;;;;;;8.57;54.71;93696.69;4316283;32;20193;-55
2023/03/08 09:21:00;;;;;;;3.00;2.80;;;;;;;8.71;54.58;93691.19;4316359;32;20388;-54
2023/03/08 09:23:29;;;;;;;3.07;2.60;;;;;;;8.68;54.89;93697.13;4355326;32;20312;-49
2023/03/08 09:25:58;;;;;;;2.90;2.70;;;;;;;8.71;54.15;93688.53;4339288;32;20289;-51
2023/03/08 09:28:25;;;;;;;3.73;3.43;;;;;;;8.77;54.39;93686.47;4325844;32;20293;-55
2023/03/08 09:30:52;;;;;;;4.77;3.20;;;;;;;8.73;55.24;93675.00;4327585;32;20329;-51
2023/03/08 09:33:19;;;;;;;9.50;4.07;;;;;;;8.81;54.35;93656.41;4356451;32;20395;-55
2023/03/08 09:35:59;;;;;;;2.80;2.60;;;;;;;8.73;55.18;93656.50;4314516;32;20317;-52
2023/03/08 09:38:30;;;;;;;2.93;2.67;;;;;;;8.27;56.68;93645.72;4360469;32;20351;-56
2023/03/08 09:41:21;;;;;;;2.90;2.80;;;;;;;8.25;57.03;93649.78;4354737;32;20281;-52
2023/03/08 09:44:06;;;;;;;2.97;2.87;;;;;;;8.34;57.29;93650.50;4344961;32;20296;-48
2023/03/08 09:47:05;;;;;;;2.97;2.23;;;;;;;8.32;57.95;93668.53;4351093;32;20329;-51
2023/03/08 09:49:32;;;;;;;2.53;2.43;;;;;;;8.47;57.59;93646.09;4350369;32;20336;-55
2023/03/08 09:52:06;;;;;;;2.87;2.77;;;;;;;8.73;56.96;93641.38;4328766;32;20285;-56
2023/03/08 09:54:44;;;;;;;3.33;3.13;;;;;;;8.88;56.77;93645.34;4317493;32;20309;-56
2023/03/08 09:57:20;;;;;;;3.40;3.20;;;;;;;8.86;56.92;93650.94;4339220;32;20308;-52
2023/03/08 10:00:01;;;;;;;3.77;3.27;;;;;;;8.92;56.23;93644.37;4299822;32;20193;-55
2023/03/08 10:03:01;;;;;;;3.83;3.53;;;;;;;9.15;55.99;93657.22;4332068;32;20301;-55
2023/03/08 10:05:42;;;;;;;2.77;2.67;;;;;;;9.07;56.14;93650.16;4354670;32;20290;-52
2023/03/08 10:08:39;;;;;;;4.03;3.70;;;;;;;8.81;56.47;93632.62;4308101;32;20286;-54
2023/03/08 10:11:23;;;;;;;2.97;2.83;;;;;;;9.19;55.35;93626.38;4327852;32;20294;-53
2023/03/08 10:14:01;;;;;;;4.33;3.93;;;;;;;9.38;55.11;93625.88;4337752;32;20377;-50
2023/03/08 10:16:36;;;;;;;3.33;3.13;;;;;;;9.28;54.91;93637.66;4344214;32;20307;-53
2023/03/08 10:19:54;;;;;;;3.97;3.67;;;;;;;9.50;54.54;93632.00;4341721;32;20343;-55
2023/03/08 10:22:41;;;;;;;4.83;3.40;;;;;;;9.17;54.62;93639.16;4241986;33;20409;-55
2023/03/08 10:25:27;;;;;;;5.20;3.10;;;;;;;9.01;56.20;93625.78;4328405;32;20292;-51
2023/03/08 10:27:57;;;;;;;3.53;3.23;;;;;;;9.11;55.02;93629.91;4327061;32;20197;-54
2023/03/08 10:30:57;;;;;;;3.73;2.80;;;;;;;9.33;54.43;93624.25;4314594;32;20282;-49
2023/03/08 10:33:26;;;;;;;4.57;4.03;;;;;;;9.41;54.32;93625.22;4316884;32;20310;-52
2023/03/08 10:36:23;;;;;;;4.37;3.93;;;;;;;9.35;54.40;93642.44;4345809;32;20208;-53
2023/03/08 10:39:10;;;;;;;3.00;2.80;;;;;;;9.46;54.35;93651.50;4342621;32;20337;-55
2023/03/08 10:41:42;;;;;;;3.63;3.17;;;;;;;9.63;54.20;93660.03;4313279;32;20290;-54
2023/03/08 10:44:29;;;;;;;7.10;3.40;;;;;;;9.64;54.10;93672.16;4336151;32;20317;-55
2023/03/08 10:46:56;;;;;;;4.63;3.77;;;;;;;9.29;56.08;93663.81;4310432;33;20289;-57
2023/03/08 10:49:26;;;;;;;3.23;3.03;;;;;;;9.36;54.65;93659.84;4319552;32;20305;-54
2023/03/08 10:52:00;;;;;;;5.57;3.50;;;;;;;9.36;55.74;93665.13;4335021;32;20197;-51
2023/03/08 10:54:27;;;;;;;3.27;3.03;;;;;;;9.50;55.82;93669.06;4342606;32;20231;-51
2023/03/08 10:57:14;;;;;;;3.50;3.30;;;;;;;9.61;55.25;93661.44;4339242;32;20300;-52
2023/03/08 10:59:48;;;;;;;5.23;4.13;;;;;;;9.65;55.13;93676.38;4341892;32;20193;-52
2023/03/08 11:02:21;;;;;;;2.57;2.47;;;;;;;9.57;57.47;93671.16;4319629;32;20244;-56
2023/03/08 11:04:59;;;;;;;3.77;3.47;;;;;;;9.31;57.51;93668.78;4322713;32;20285;-55
2023/03/08 11:07:32;;;;;;;3.33;3.10;;;;;;;9.40;58.64;93673.97;4304833;33;20278;-53
2023/03/08 11:10:26;;;;;;;2.63;2.47;;;;;;;9.24;61.13;93665.88;4319053;32;20300;-53
2023/03/08 11:13:26;;;;;;;2.10;2.00;;;;;;;8.92;65.05;93664.75;4310494;32;20283;-54
2023/03/08 11:16:02;;;;;;;2.93;2.30;;;;;;;8.81;68.13;93655.66;4325501;32;20334;-51
2023/03/08 11:19:04;;;;;;;2.03;1.93;;;;;;;8.86;69.20;93661.53;4342109;32;20351;-56
2023/03/08 11:22:02;;;;;;;2.60;2.50;;;;;;;8.78;69.49;93670.28;4289144;33;20305;-54
2023/03/08 11:24:58;;;;;;;2.50;2.30;;;;;;;8.76;67.83;93659.25;4244718;33;20304;-62
2023/03/08 11:28:01;;;;;;;2.47;1.97;;;;;;;8.61;68.95;93655.31;4280057;33;20284;-56
2023/03/08 11:30:55;;;;;;;3.90;2.40;;;;;;;8.50;70.58;93648.09;4265452;33;20288;-51
2023/03/08 11:33:59;;;;;;;1.60;1.50;;;;;;;8.60;71.34;93647.72;4279729;33;20279;-51
2023/03/08 11:36:42;;;;;;;1.90;1.80;;;;;;;8.56;72.48;93636.22;4308061;33;20362;-51
2023/03/08 11:39:23;;;;;;;1.23;1.23;;;;;;;8.61;71.70;93628.13;4302386;33;20374;-53
2023/03/08 11:42:27;;;;;;;2.53;1.63;;;;;;;8.64;72.74;93624.06;4289755;33;20306;-54
2023/03/08 11:45:18;;;;;;;1.03;1.03;;;;;;;8.82;72.26;93606.97;4282851;33;20302;-51
2023/03/08 11:48:18;;;;;;;10.90;1.80;;;;;;;8.88;71.98;93585.28;4290656;33;20297;-53
2023/03/08 11:51:00;;;;;;;1.87;1.77;;;;;;;8.87;69.94;93582.97;4318366;32;20309;-53
2023/03/08 11:53:45;;;;;;;1.97;1.87;;;;;;;9.00;69.29;93565.25;4318914;33;20358;-54
2023/03/08 11:56:47;;;;;;;1.83;1.67;;;;;;;8.72;70.29;93562.44;4342264;32;20285;-52
2023/03/08 11:59:34;;;;;;;1.70;1.70;;;;;;;8.87;70.29;93557.31;4314094;32;20289;-53
2023/03/08 12:02:28;;;;;;;1.47;1.37;;;;;;;8.88;70.52;93548.28;4304480;32;20379;-51
2023/03/08 12:05:28;;;;;;;3.60;2.20;;;;;;;8.64;71.10;93548.19;4350796;32;20344;-53
2023/03/08 12:08:20;;;;;;;1.83;1.73;;;;;;;8.78;70.82;93547.91;4317388;32;20281;-55